PGUM/GUM METAR and TAF weather

Enter ICAO airport designator
Station Type Date Time Source
PGUM METAR 2019/10/23 01:54 UTC NOAA

PGUM 230154Z 13007KT 110V170 10SM FEW016 FEW020 SCT027 30/24 A2985 RMK AO2 SLP101 T03000244


Station Type Date Time Source
PGUM Decoded METAR 2019/10/23 01:54 UTC NOAA

Agana, Guam International Airport, GU, United States (PGUM) 13-29N 144-48E
Oct 22, 2019 - 09:54 PM EDT / 2019.10.23 0154 UTC
Wind: from the SE (130 degrees) at 8 MPH (7 KT) (direction variable):0
Visibility: 10 mile(s):0
Sky conditions: partly cloudy
Temperature: 86.0 F (30.0 C)
Heat index: 95.9 F (35.5 C):1
Dew Point: 75.9 F (24.4 C)
Relative Humidity: 72%
Pressure (altimeter): 29.85 in. Hg (1010 hPa)
ob: PGUM 230154Z 13007KT 110V170 10SM FEW016 FEW020 SCT027 30/24 A2985 RMK AO2 SLP101 T03000244
cycle: 2

Station Type Date Time Source
PGUM TAF 2019/10/22 18:26 UTC NOAA

TAF PGUM 221720Z 2218/2324 VRB05KT P6SM FEW018
FM232200 06011KT P6SM VCSH SCT020 SCT050

Example: see airport list